Time;durP1;ratioP1;P1;durP2;ratioP2;P2;SDS_P1;SDS_P2;PMS_P1;PMS_P2;Temp;Humidity;BMP_temperature;BMP_pressure;BME280_temperature;BME280_humidity;BME280_pressure;Samples;Min_cycle;Max_cycle;Signal;HPM_P1;HPM_P2
2022/01/27 00:00:16;;;;;;;;;;;;;;;;;;1004116;29;946;-34
2022/01/27 00:00:49;;;;;;;;;;;;;;;;;;1008103;29;1521;-33
2022/01/27 00:02:56;;;;;;;;;;;;;;;;;;1008198;29;844;-34
2022/01/27 00:03:32;;;;;;;;;;;;;;;;;;1008232;29;1030;-33
2022/01/27 00:04:41;;;;;;;;;;;;;;;;;;1008175;29;1027;-33
2022/01/27 00:05:50;;;;;;;;;;;;;;;;;;1007940;29;942;-34
2022/01/27 00:06:20;;;;;;;;;;;;;;;;;;1008225;29;761;-34
2022/01/27 00:06:51;;;;;;;;;;;;;;;;;;1008067;29;926;-34
2022/01/27 00:07:21;;;;;;;;;;;;;;;;;;1008298;29;812;-33
2022/01/27 00:08:09;;;;;;;;;;;;;;;;;;1008171;29;903;-34
2022/01/27 00:08:55;;;;;;;;;;;;;;;;;;1008216;29;947;-33
2022/01/27 00:09:46;;;;;;;;;;;;;;;;;;1008086;29;964;-34
2022/01/27 00:10:56;;;;;;;;;;;;;;;;;;1008073;29;863;-34
2022/01/27 00:11:27;;;;;;;;;;;;;;;;;;1008168;29;888;-33
2022/01/27 00:11:58;;;;;;;;;;;;;;;;;;1008133;29;875;-33
2022/01/27 00:12:28;;;;;;;;;;;;;;;;;;1007892;29;942;-33
2022/01/27 00:12:59;;;;;;;;;;;;;;;;;;1008197;29;934;-33
2022/01/27 00:13:43;;;;;;;;;;;;;;;;;;1008198;29;785;-33
2022/01/27 00:14:14;;;;;;;;;;;;;;;;;;1008147;29;886;-34
2022/01/27 00:14:52;;;;;;;;;;;;;;;;;;1008038;29;903;-34
2022/01/27 00:15:30;;;;;;;;;;;;;;;;;;1008131;29;919;-33
2022/01/27 00:16:16;;;;;;;;;;;;;;;;;;1007975;29;1232;-34
2022/01/27 00:16:55;;;;;;;;;;;;;;;;;;1003813;29;892;-33
2022/01/27 00:17:30;;;;;;;;;;;;;;;;;;1003988;29;879;-34
2022/01/27 00:18:08;;;;;;;;;;;;;;;;;;1003897;29;887;-34
2022/01/27 00:18:39;;;;;;;;;;;;;;;;;;1006950;29;911;-33
2022/01/27 00:19:10;;;;;;;;;;;;;;;;;;1007908;29;923;-33
2022/01/27 00:19:42;;;;;;;;;;;;;;;;;;1008194;29;867;-34
2022/01/27 00:20:13;;;;;;;;;;;;;;;;;;1008046;29;775;-34
2022/01/27 00:20:46;;;;;;;;;;;;;;;;;;1008086;29;879;-35
2022/01/27 00:21:18;;;;;;;;;;;;;;;;;;1008202;29;884;-34
2022/01/27 00:21:49;;;;;;;;;;;;;;;;;;1007998;29;833;-34
2022/01/27 00:22:19;;;;;;;;;;;;;;;;;;1007955;29;765;-33
2022/01/27 00:22:49;;;;;;;;;;;;;;;;;;1007784;29;1214;-34
2022/01/27 00:23:20;;;;;;;;;;;;;;;;;;1008148;29;791;-34
2022/01/27 00:23:51;;;;;;;;;;;;;;;;;;1008010;29;1977;-34
2022/01/27 00:24:21;;;;;;;;;;;;;;;;;;1007937;29;989;-34
2022/01/27 00:24:52;;;;;;;;;;;;;;;;;;1008021;29;871;-34
2022/01/27 00:25:22;;;;;;;;;;;;;;;;;;1008119;29;993;-34
2022/01/27 00:25:52;;;;;;;;;;;;;;;;;;1008001;29;922;-34
2022/01/27 00:26:23;;;;;;;;;;;;;;;;;;1007957;29;803;-34
2022/01/27 00:26:53;;;;;;;;;;;;;;;;;;1007984;29;879;-34
2022/01/27 00:27:24;;;;;;;;;;;;;;;;;;1003908;29;1287;-33
2022/01/27 00:27:54;;;;;;;;;;;;;;;;;;1004013;29;873;-34
2022/01/27 00:28:24;;;;;;;;;;;;;;;;;;1003701;29;957;-33
2022/01/27 00:28:55;;;;;;;;;;;;;;;;;;1003843;29;1283;-33
2022/01/27 00:29:25;;;;;;;;;;;;;;;;;;1003839;29;1358;-34
2022/01/27 00:29:56;;;;;;;;;;;;;;;;;;1003917;29;840;-34
2022/01/27 00:30:26;;;;;;;;;;;;;;;;;;1003835;29;1600;-34
2022/01/27 00:30:57;;;;;;;;;;;;;;;;;;1008038;29;927;-34
2022/01/27 00:31:27;;;;;;;;;;;;;;;;;;1008005;29;867;-33
2022/01/27 00:31:57;;;;;;;;;;;;;;;;;;1008106;29;824;-34
2022/01/27 00:32:28;;;;;;;;;;;;;;;;;;1007865;29;943;-34
2022/01/27 00:32:58;;;;;;;;;;;;;;;;;;1008092;29;993;-33
2022/01/27 00:33:28;;;;;;;;;;;;;;;;;;1007831;29;915;-33
2022/01/27 00:34:03;;;;;;;;;;;;;;;;;;1008108;29;1053;-34
2022/01/27 00:34:33;;;;;;;;;;;;;;;;;;1008206;29;812;-34
2022/01/27 00:35:05;;;;;;;;;;;;;;;;;;1007882;29;966;-33
2022/01/27 00:35:35;;;;;;;;;;;;;;;;;;1008106;29;785;-33
2022/01/27 00:36:06;;;;;;;;;;;;;;;;;;1007876;29;859;-34
2022/01/27 00:36:36;;;;;;;;;;;;;;;;;;1008131;29;844;-33
2022/01/27 00:37:06;;;;;;;;;;;;;;;;;;1008027;29;903;-33
2022/01/27 00:37:37;;;;;;;;;;;;;;;;;;1008022;29;804;-34
2022/01/27 00:38:07;;;;;;;;;;;;;;;;;;1007914;29;1058;-33
2022/01/27 00:38:38;;;;;;;;;;;;;;;;;;1007985;29;962;-34
2022/01/27 00:39:09;;;;;;;;;;;;;;;;;;1007953;29;954;-34
2022/01/27 00:39:39;;;;;;;;;;;;;;;;;;1008069;29;922;-34
2022/01/27 00:40:11;;;;;;;;;;;;;;;;;;1007789;29;989;-34
2022/01/27 00:40:42;;;;;;;;;;;;;;;;;;1007992;29;1125;-34
2022/01/27 00:41:13;;;;;;;;;;;;;;;;;;1008121;29;816;-34
2022/01/27 00:41:44;;;;;;;;;;;;;;;;;;1007857;29;813;-34
2022/01/27 00:42:14;;;;;;;;;;;;;;;;;;1008053;29;835;-34
2022/01/27 00:42:45;;;;;;;;;;;;;;;;;;1007969;29;989;-34
2022/01/27 00:43:15;;;;;;;;;;;;;;;;;;1008036;29;894;-34
2022/01/27 00:43:48;;;;;;;;;;;;;;;;;;1007957;29;887;-34
2022/01/27 00:44:18;;;;;;;;;;;;;;;;;;1007757;29;1908;-34
2022/01/27 00:44:48;;;;;;;;;;;;;;;;;;1008112;29;883;-33
2022/01/27 00:45:19;;;;;;;;;;;;;;;;;;1007902;29;1621;-34
2022/01/27 00:45:49;;;;;;;;;;;;;;;;;;1003748;29;832;-34
2022/01/27 00:46:20;;;;;;;;;;;;;;;;;;1003822;29;907;-34
2022/01/27 00:46:50;;;;;;;;;;;;;;;;;;1003791;29;927;-33
2022/01/27 00:47:21;;;;;;;;;;;;;;;;;;1003889;29;800;-34
2022/01/27 00:47:51;;;;;;;;;;;;;;;;;;1003803;29;990;-34
2022/01/27 00:48:21;;;;;;;;;;;;;;;;;;1003637;29;950;-34
2022/01/27 00:48:52;;;;;;;;;;;;;;;;;;1003967;29;918;-35
2022/01/27 00:49:22;;;;;;;;;;;;;;;;;;1003658;29;811;-33
2022/01/27 00:49:53;;;;;;;;;;;;;;;;;;1008112;29;842;-33
2022/01/27 00:50:23;;;;;;;;;;;;;;;;;;1007864;29;796;-34
2022/01/27 00:51:00;;;;;;;;;;;;;;;;;;1008027;29;816;-34
2022/01/27 00:51:36;;;;;;;;;;;;;;;;;;1008090;29;772;-34
2022/01/27 00:52:15;;;;;;;;;;;;;;;;;;1007787;29;837;-34
2022/01/27 00:52:52;;;;;;;;;;;;;;;;;;1007993;29;860;-34
2022/01/27 00:54:07;;;;;;;;;;;;;;;;;;1007880;29;871;-34
2022/01/27 00:54:37;;;;;;;;;;;;;;;;;;1008046;29;939;-32
2022/01/27 00:55:09;;;;;;;;;;;;;;;;;;1007931;29;875;-34
2022/01/27 00:55:41;;;;;;;;;;;;;;;;;;1008010;29;891;-34
2022/01/27 00:59:28;;;;;;;;;;;;;;;;;;995813;29;1267;-34
2022/01/27 01:00:02;;;;;;;;;;;;;;;;;;995843;29;784;-34
2022/01/27 01:00:37;;;;;;;;;;;;;;;;;;995977;29;958;-34
2022/01/27 01:01:11;;;;;;;;;;;;;;;;;;995852;29;843;-34
2022/01/27 01:01:47;;;;;;;;;;;;;;;;;;995898;29;954;-34
2022/01/27 01:02:38;;;;;;;;;;;;;;;;;;995835;29;879;-33
2022/01/27 01:03:24;;;;;;;;;;;;;;;;;;995909;29;888;-34
2022/01/27 01:03:58;;;;;;;;;;;;;;;;;;995698;29;1982;-34
2022/01/27 01:04:33;;;;;;;;;;;;;;;;;;995913;29;947;-34
2022/01/27 01:06:53;;;;;;;;;;;;;;;;;;1007854;29;892;-35
2022/01/27 01:07:18;;;;;;;;;;;;;;;;;;1004083;29;1314;-34
2022/01/27 01:07:52;;;;;;;;;;;;;;;;;;1007834;29;871;-34
2022/01/27 01:10:25;;;;;;;;;;;;;;;;;;1007797;29;811;-34
2022/01/27 01:10:54;;;;;;;;;;;;;;;;;;1007529;29;949;-34
2022/01/27 01:15:10;;;;;;;;;;;;;;;;;;1007888;29;1483;-34
2022/01/27 01:15:42;;;;;;;;;;;;;;;;;;1007925;29;1297;-34
2022/01/27 01:16:22;;;;;;;;;;;;;;;;;;1007858;29;914;-33
2022/01/27 01:17:07;;;;;;;;;;;;;;;;;;1008022;29;954;-33
2022/01/27 01:18:24;;;;;;;;;;;;;;;;;;1007809;29;791;-34
2022/01/27 01:19:06;;;;;;;;;;;;;;;;;;1007974;29;1625;-34
2022/01/27 01:19:52;;;;;;;;;;;;;;;;;;1007911;29;955;-34
2022/01/27 01:20:32;;;;;;;;;;;;;;;;;;1007770;29;867;-34
2022/01/27 01:30:57;;;;;;;;;;;;;;;;;;1007894;29;935;-34
2022/01/27 01:31:33;;;;;;;;;;;;;;;;;;1007732;29;832;-34
2022/01/27 01:32:49;;;;;;;;;;;;;;;;;;1007741;29;788;-34
2022/01/27 01:33:23;;;;;;;;;;;;;;;;;;1007901;29;965;-34
2022/01/27 01:34:00;;;;;;;;;;;;;;;;;;1003769;29;772;-33
2022/01/27 01:34:32;;;;;;;;;;;;;;;;;;1003612;29;947;-33
2022/01/27 01:35:06;;;;;;;;;;;;;;;;;;1003726;29;876;-33
2022/01/27 01:35:51;;;;;;;;;;;;;;;;;;1005290;29;961;-34
2022/01/27 01:36:35;;;;;;;;;;;;;;;;;;1007754;29;899;-34
2022/01/27 01:37:07;;;;;;;;;;;;;;;;;;1007805;29;1268;-33
2022/01/27 01:37:40;;;;;;;;;;;;;;;;;;1007873;29;985;-33
2022/01/27 01:38:11;;;;;;;;;;;;;;;;;;1007774;29;935;-34
2022/01/27 01:38:45;;;;;;;;;;;;;;;;;;1003593;29;824;-33
2022/01/27 01:39:15;;;;;;;;;;;;;;;;;;1003724;29;1011;-34
2022/01/27 01:39:46;;;;;;;;;;;;;;;;;;1003724;29;844;-34
2022/01/27 01:40:16;;;;;;;;;;;;;;;;;;1004204;29;868;-33
2022/01/27 01:40:49;;;;;;;;;;;;;;;;;;1007749;29;1216;-33
2022/01/27 01:41:19;;;;;;;;;;;;;;;;;;1007827;29;898;-33
2022/01/27 01:41:50;;;;;;;;;;;;;;;;;;1007941;29;954;-33
2022/01/27 01:42:20;;;;;;;;;;;;;;;;;;1007434;29;914;-34
2022/01/27 01:42:51;;;;;;;;;;;;;;;;;;1007958;29;919;-34
2022/01/27 01:43:21;;;;;;;;;;;;;;;;;;1007760;29;915;-34
2022/01/27 01:43:51;;;;;;;;;;;;;;;;;;1007975;29;973;-33
2022/01/27 01:44:23;;;;;;;;;;;;;;;;;;1007728;29;935;-34
2022/01/27 01:44:53;;;;;;;;;;;;;;;;;;1007826;29;883;-34
2022/01/27 01:45:24;;;;;;;;;;;;;;;;;;1007679;29;934;-33
2022/01/27 01:45:55;;;;;;;;;;;;;;;;;;1011412;29;952;-34
2022/01/27 01:46:25;;;;;;;;;;;;;;;;;;1011063;29;955;-33
2022/01/27 01:46:56;;;;;;;;;;;;;;;;;;1011395;29;935;-33
2022/01/27 01:47:26;;;;;;;;;;;;;;;;;;1011065;29;1153;-33
2022/01/27 01:47:56;;;;;;;;;;;;;;;;;;1011395;29;920;-35
2022/01/27 01:48:27;;;;;;;;;;;;;;;;;;1011262;29;828;-33
2022/01/27 01:48:57;;;;;;;;;;;;;;;;;;1011308;29;860;-33
2022/01/27 01:49:28;;;;;;;;;;;;;;;;;;1011317;29;942;-33
2022/01/27 01:49:58;;;;;;;;;;;;;;;;;;1007865;29;840;-34
2022/01/27 01:50:28;;;;;;;;;;;;;;;;;;1007747;29;787;-34
2022/01/27 01:51:01;;;;;;;;;;;;;;;;;;1007877;29;812;-34
2022/01/27 01:51:32;;;;;;;;;;;;;;;;;;1007763;29;918;-34
2022/01/27 01:52:05;;;;;;;;;;;;;;;;;;1007839;29;830;-33
2022/01/27 01:52:35;;;;;;;;;;;;;;;;;;1007627;29;938;-34
2022/01/27 01:53:06;;;;;;;;;;;;;;;;;;1007785;29;882;-33
2022/01/27 01:53:36;;;;;;;;;;;;;;;;;;1007823;29;974;-33
2022/01/27 01:54:07;;;;;;;;;;;;;;;;;;1007673;29;867;-33
2022/01/27 01:54:37;;;;;;;;;;;;;;;;;;1007828;29;959;-33
2022/01/27 01:55:08;;;;;;;;;;;;;;;;;;1007803;29;906;-34
2022/01/27 01:55:39;;;;;;;;;;;;;;;;;;1007683;29;940;-34
2022/01/27 01:56:09;;;;;;;;;;;;;;;;;;1007822;29;973;-34
2022/01/27 01:56:40;;;;;;;;;;;;;;;;;;1007794;29;1010;-34
2022/01/27 01:57:10;;;;;;;;;;;;;;;;;;1007848;29;816;-33
2022/01/27 01:57:41;;;;;;;;;;;;;;;;;;1007647;29;981;-34
2022/01/27 01:58:11;;;;;;;;;;;;;;;;;;1007827;29;795;-34
2022/01/27 01:58:42;;;;;;;;;;;;;;;;;;1007787;29;858;-34
2022/01/27 01:59:14;;;;;;;;;;;;;;;;;;1007745;29;829;-34
2022/01/27 01:59:44;;;;;;;;;;;;;;;;;;1007732;29;907;-34
2022/01/27 02:00:15;;;;;;;;;;;;;;;;;;1007852;29;1057;-34
2022/01/27 02:00:46;;;;;;;;;;;;;;;;;;1007698;29;855;-34
2022/01/27 02:01:17;;;;;;;;;;;;;;;;;;1007829;29;1007;-34
2022/01/27 02:01:47;;;;;;;;;;;;;;;;;;1007722;29;883;-35
2022/01/27 02:02:17;;;;;;;;;;;;;;;;;;1007680;29;927;-34
2022/01/27 02:02:48;;;;;;;;;;;;;;;;;;1007842;29;808;-34
2022/01/27 02:03:18;;;;;;;;;;;;;;;;;;1007751;29;796;-34
2022/01/27 02:03:48;;;;;;;;;;;;;;;;;;1007733;29;920;-34
2022/01/27 02:04:19;;;;;;;;;;;;;;;;;;1007685;29;1945;-33
2022/01/27 02:04:49;;;;;;;;;;;;;;;;;;1007688;29;879;-35
2022/01/27 02:05:21;;;;;;;;;;;;;;;;;;1007837;29;997;-34
2022/01/27 02:05:55;;;;;;;;;;;;;;;;;;1007667;29;836;-33
2022/01/27 02:06:32;;;;;;;;;;;;;;;;;;1007933;29;843;-34
2022/01/27 02:07:09;;;;;;;;;;;;;;;;;;1007720;29;860;-33
2022/01/27 02:08:02;;;;;;;;;;;;;;;;;;1007770;29;852;-34
2022/01/27 02:10:06;;;;;;;;;;;;;;;;;;1003382;29;879;-33
2022/01/27 02:17:58;;;;;;;;;;;;;;;;;;1007865;29;804;-34
2022/01/27 02:18:08;;;;;;;;;;;;;;;;;;1007590;29;1448;-34
2022/01/27 02:18:39;;;;;;;;;;;;;;;;;;1007781;29;847;-33
2022/01/27 02:19:10;;;;;;;;;;;;;;;;;;1007793;29;801;-34
2022/01/27 02:19:40;;;;;;;;;;;;;;;;;;1007723;29;808;-34
2022/01/27 02:20:11;;;;;;;;;;;;;;;;;;1007689;29;886;-34
2022/01/27 02:20:41;;;;;;;;;;;;;;;;;;1007650;29;1097;-34
2022/01/27 02:21:12;;;;;;;;;;;;;;;;;;1007762;29;958;-34
2022/01/27 02:21:46;;;;;;;;;;;;;;;;;;1007815;29;843;-34
2022/01/27 02:22:17;;;;;;;;;;;;;;;;;;1007921;29;1859;-34
2022/01/27 02:22:47;;;;;;;;;;;;;;;;;;1004246;29;1211;-34
2022/01/27 02:23:18;;;;;;;;;;;;;;;;;;1004375;29;780;-34
2022/01/27 02:23:48;;;;;;;;;;;;;;;;;;1004392;29;1055;-34
2022/01/27 02:24:19;;;;;;;;;;;;;;;;;;1004262;29;1907;-34
2022/01/27 02:24:53;;;;;;;;;;;;;;;;;;1008395;29;1662;-34
2022/01/27 02:25:24;;;;;;;;;;;;;;;;;;1008620;29;962;-34
2022/01/27 02:25:54;;;;;;;;;;;;;;;;;;1008529;29;816;-33
2022/01/27 02:26:24;;;;;;;;;;;;;;;;;;1008466;29;807;-33
2022/01/27 02:26:56;;;;;;;;;;;;;;;;;;1008450;29;954;-33
2022/01/27 02:27:26;;;;;;;;;;;;;;;;;;1008532;29;912;-34
2022/01/27 02:27:57;;;;;;;;;;;;;;;;;;1008434;29;848;-34
2022/01/27 02:28:27;;;;;;;;;;;;;;;;;;1008600;29;797;-33
2022/01/27 02:28:57;;;;;;;;;;;;;;;;;;1008289;29;930;-34
2022/01/27 02:29:28;;;;;;;;;;;;;;;;;;1008689;29;903;-33
2022/01/27 02:29:58;;;;;;;;;;;;;;;;;;1008362;29;804;-34
2022/01/27 02:30:28;;;;;;;;;;;;;;;;;;1008464;29;1275;-34
2022/01/27 02:30:59;;;;;;;;;;;;;;;;;;1008400;29;963;-34
2022/01/27 02:31:29;;;;;;;;;;;;;;;;;;1008550;29;903;-34
2022/01/27 02:32:00;;;;;;;;;;;;;;;;;;1008406;29;836;-34
2022/01/27 02:32:30;;;;;;;;;;;;;;;;;;1008530;29;971;-33
2022/01/27 02:33:01;;;;;;;;;;;;;;;;;;1007917;29;930;-34
2022/01/27 02:33:32;;;;;;;;;;;;;;;;;;1012056;29;994;-34
2022/01/27 02:34:04;;;;;;;;;;;;;;;;;;1011907;29;935;-34
2022/01/27 02:34:35;;;;;;;;;;;;;;;;;;1012046;29;831;-34
2022/01/27 02:35:06;;;;;;;;;;;;;;;;;;1011549;29;927;-33
2022/01/27 02:35:36;;;;;;;;;;;;;;;;;;1008399;29;911;-34
2022/01/27 02:36:07;;;;;;;;;;;;;;;;;;1008516;29;824;-33
2022/01/27 02:36:37;;;;;;;;;;;;;;;;;;1008522;29;835;-36
2022/01/27 02:37:08;;;;;;;;;;;;;;;;;;1008412;29;784;-34
2022/01/27 02:37:38;;;;;;;;;;;;;;;;;;1008542;29;816;-34
2022/01/27 02:38:09;;;;;;;;;;;;;;;;;;1008354;29;943;-33
2022/01/27 02:38:39;;;;;;;;;;;;;;;;;;1008481;29;867;-33
2022/01/27 02:39:10;;;;;;;;;;;;;;;;;;1008415;29;978;-34
2022/01/27 02:39:41;;;;;;;;;;;;;;;;;;1007775;29;1354;-34
2022/01/27 02:40:12;;;;;;;;;;;;;;;;;;1009860;29;812;-33
2022/01/27 02:40:47;;;;;;;;;;;;;;;;;;1009741;29;942;-34
2022/01/27 02:41:20;;;;;;;;;;;;;;;;;;1009405;29;995;-34
2022/01/27 02:42:10;;;;;;;;;;;;;;;;;;1011467;29;817;-34
2022/01/27 02:42:40;;;;;;;;;;;;;;;;;;1009329;29;998;-34
2022/01/27 02:43:11;;;;;;;;;;;;;;;;;;1012421;29;894;-33
2022/01/27 02:43:41;;;;;;;;;;;;;;;;;;1008010;29;888;-34
2022/01/27 02:44:27;;;;;;;;;;;;;;;;;;1008072;29;1923;-34
2022/01/27 02:45:04;;;;;;;;;;;;;;;;;;1008173;29;685;-34
2022/01/27 02:45:41;;;;;;;;;;;;;;;;;;1011076;29;985;-35
2022/01/27 02:46:15;;;;;;;;;;;;;;;;;;1012298;29;902;-34
2022/01/27 02:46:46;;;;;;;;;;;;;;;;;;1012199;29;1642;-34
2022/01/27 02:47:16;;;;;;;;;;;;;;;;;;1012285;29;966;-34
2022/01/27 02:47:47;;;;;;;;;;;;;;;;;;1012286;29;939;-34
2022/01/27 02:48:17;;;;;;;;;;;;;;;;;;1012134;29;979;-34
2022/01/27 02:48:47;;;;;;;;;;;;;;;;;;1012413;29;811;-33
2022/01/27 02:49:18;;;;;;;;;;;;;;;;;;1012180;29;808;-33
2022/01/27 02:49:49;;;;;;;;;;;;;;;;;;1012402;29;938;-34
2022/01/27 02:50:19;;;;;;;;;;;;;;;;;;1012175;29;781;-35
2022/01/27 02:50:49;;;;;;;;;;;;;;;;;;1012350;29;950;-33
2022/01/27 02:51:20;;;;;;;;;;;;;;;;;;1012180;29;1172;-34
2022/01/27 02:51:51;;;;;;;;;;;;;;;;;;1012335;29;886;-34
2022/01/27 02:52:21;;;;;;;;;;;;;;;;;;1012059;29;953;-33
2022/01/27 02:52:52;;;;;;;;;;;;;;;;;;1012464;29;946;-33
2022/01/27 02:53:22;;;;;;;;;;;;;;;;;;1012170;29;966;-34
2022/01/27 02:53:55;;;;;;;;;;;;;;;;;;1012348;29;921;-35
2022/01/27 02:54:25;;;;;;;;;;;;;;;;;;1012305;29;883;-33
2022/01/27 02:54:55;;;;;;;;;;;;;;;;;;1012282;29;943;-33
2022/01/27 02:55:26;;;;;;;;;;;;;;;;;;1012273;29;855;-33
2022/01/27 02:55:56;;;;;;;;;;;;;;;;;;1012169;29;887;-34
2022/01/27 02:56:26;;;;;;;;;;;;;;;;;;1012416;29;977;-34
2022/01/27 02:56:57;;;;;;;;;;;;;;;;;;1008017;29;947;-34
2022/01/27 02:57:27;;;;;;;;;;;;;;;;;;1008065;29;886;-34
2022/01/27 02:57:58;;;;;;;;;;;;;;;;;;1008076;29;594;-32
2022/01/27 02:58:29;;;;;;;;;;;;;;;;;;1008181;29;848;-31
2022/01/27 02:58:59;;;;;;;;;;;;;;;;;;1012284;29;894;-31
2022/01/27 02:59:29;;;;;;;;;;;;;;;;;;1012373;29;818;-31
2022/01/27 03:00:00;;;;;;;;;;;;;;;;;;1012084;29;950;-32
2022/01/27 03:00:31;;;;;;;;;;;;;;;;;;1012248;29;953;-32
2022/01/27 03:01:04;;;;;;;;;;;;;;;;;;1012205;29;939;-32
2022/01/27 03:01:34;;;;;;;;;;;;;;;;;;1012258;29;843;-32
2022/01/27 03:02:05;;;;;;;;;;;;;;;;;;1012320;29;939;-31
2022/01/27 03:02:36;;;;;;;;;;;;;;;;;;1011974;29;1043;-31
2022/01/27 03:03:07;;;;;;;;;;;;;;;;;;1012331;29;939;-31
2022/01/27 03:03:37;;;;;;;;;;;;;;;;;;1012292;29;931;-32
2022/01/27 03:04:07;;;;;;;;;;;;;;;;;;1012124;29;1883;-32
2022/01/27 03:04:38;;;;;;;;;;;;;;;;;;1012180;29;938;-32
2022/01/27 03:05:08;;;;;;;;;;;;;;;;;;1012267;29;911;-31
2022/01/27 03:05:39;;;;;;;;;;;;;;;;;;1012256;29;911;-31
2022/01/27 03:06:09;;;;;;;;;;;;;;;;;;1012288;29;985;-31
2022/01/27 03:06:39;;;;;;;;;;;;;;;;;;1012120;29;796;-32
2022/01/27 03:07:10;;;;;;;;;;;;;;;;;;1012347;29;962;-32
2022/01/27 03:07:40;;;;;;;;;;;;;;;;;;1012203;29;946;-33
2022/01/27 03:08:11;;;;;;;;;;;;;;;;;;1012229;29;906;-32
2022/01/27 03:08:41;;;;;;;;;;;;;;;;;;1012248;29;911;-34
2022/01/27 03:09:12;;;;;;;;;;;;;;;;;;1012155;29;807;-33
2022/01/27 03:09:42;;;;;;;;;;;;;;;;;;1012288;29;862;-33
2022/01/27 03:10:13;;;;;;;;;;;;;;;;;;1012086;29;1005;-34
2022/01/27 03:10:48;;;;;;;;;;;;;;;;;;1012216;29;959;-34
2022/01/27 03:11:31;;;;;;;;;;;;;;;;;;1012275;29;883;-35
2022/01/27 03:12:07;;;;;;;;;;;;;;;;;;1012070;29;1836;-34
2022/01/27 03:12:38;;;;;;;;;;;;;;;;;;1012178;29;808;-34
2022/01/27 03:13:09;;;;;;;;;;;;;;;;;;1012193;29;946;-34
2022/01/27 03:13:40;;;;;;;;;;;;;;;;;;1012200;29;832;-33
2022/01/27 03:14:10;;;;;;;;;;;;;;;;;;1012207;29;837;-34
2022/01/27 03:14:41;;;;;;;;;;;;;;;;;;1012205;29;800;-36
2022/01/27 03:15:12;;;;;;;;;;;;;;;;;;1012013;29;981;-34
2022/01/27 03:15:42;;;;;;;;;;;;;;;;;;1012148;29;1360;-34
2022/01/27 03:16:12;;;;;;;;;;;;;;;;;;1012064;29;934;-32
2022/01/27 03:16:43;;;;;;;;;;;;;;;;;;1012373;29;871;-33
2022/01/27 03:17:13;;;;;;;;;;;;;;;;;;1012094;29;826;-33
2022/01/27 03:17:43;;;;;;;;;;;;;;;;;;1012307;29;870;-32
2022/01/27 03:18:14;;;;;;;;;;;;;;;;;;1012164;29;882;-33
2022/01/27 03:18:44;;;;;;;;;;;;;;;;;;1012151;29;868;-33
2022/01/27 03:19:14;;;;;;;;;;;;;;;;;;1012069;29;1022;-33
2022/01/27 03:19:45;;;;;;;;;;;;;;;;;;1015832;29;886;-33
2022/01/27 03:20:15;;;;;;;;;;;;;;;;;;1015595;29;938;-32
2022/01/27 03:20:46;;;;;;;;;;;;;;;;;;1015910;29;935;-32
2022/01/27 03:21:16;;;;;;;;;;;;;;;;;;1015579;29;886;-32
2022/01/27 03:21:47;;;;;;;;;;;;;;;;;;1012289;29;911;-32
2022/01/27 03:22:17;;;;;;;;;;;;;;;;;;1011868;29;796;-33
2022/01/27 03:22:47;;;;;;;;;;;;;;;;;;1012067;29;1105;-32
2022/01/27 03:23:18;;;;;;;;;;;;;;;;;;1012119;29;788;-32
2022/01/27 03:23:48;;;;;;;;;;;;;;;;;;1012305;29;927;-32
2022/01/27 03:24:19;;;;;;;;;;;;;;;;;;1011976;29;1944;-33
2022/01/27 03:24:49;;;;;;;;;;;;;;;;;;1012359;29;800;-32
2022/01/27 03:25:19;;;;;;;;;;;;;;;;;;1011847;29;994;-33
2022/01/27 03:25:50;;;;;;;;;;;;;;;;;;1012323;29;816;-33
2022/01/27 03:26:21;;;;;;;;;;;;;;;;;;1012089;29;831;-32
2022/01/27 03:26:52;;;;;;;;;;;;;;;;;;1012240;29;822;-33
2022/01/27 03:27:25;;;;;;;;;;;;;;;;;;1012096;29;1212;-32
2022/01/27 03:27:56;;;;;;;;;;;;;;;;;;1012119;29;883;-32
2022/01/27 03:28:28;;;;;;;;;;;;;;;;;;1012172;29;899;-33
2022/01/27 03:28:59;;;;;;;;;;;;;;;;;;1012168;29;946;-33
2022/01/27 03:29:29;;;;;;;;;;;;;;;;;;1012033;29;1014;-33
2022/01/27 03:29:59;;;;;;;;;;;;;;;;;;1011956;29;1279;-33
2022/01/27 03:30:30;;;;;;;;;;;;;;;;;;1008191;29;902;-33
2022/01/27 03:31:00;;;;;;;;;;;;;;;;;;1008370;29;807;-33
2022/01/27 03:31:30;;;;;;;;;;;;;;;;;;1008345;29;934;-33
2022/01/27 03:32:01;;;;;;;;;;;;;;;;;;1008152;29;821;-32
2022/01/27 03:32:31;;;;;;;;;;;;;;;;;;1008264;29;946;-33
2022/01/27 03:33:01;;;;;;;;;;;;;;;;;;1008130;29;1120;-32
2022/01/27 03:33:32;;;;;;;;;;;;;;;;;;1008259;29;895;-32
2022/01/27 03:34:02;;;;;;;;;;;;;;;;;;1008252;29;860;-32
2022/01/27 03:34:32;;;;;;;;;;;;;;;;;;1008149;29;926;-32
2022/01/27 03:35:03;;;;;;;;;;;;;;;;;;1008395;29;828;-32
2022/01/27 03:35:33;;;;;;;;;;;;;;;;;;1008192;29;977;-32
2022/01/27 03:36:04;;;;;;;;;;;;;;;;;;1008225;29;848;-32
2022/01/27 03:36:34;;;;;;;;;;;;;;;;;;1008207;29;891;-32
2022/01/27 03:37:04;;;;;;;;;;;;;;;;;;1008317;29;773;-32
2022/01/27 03:37:35;;;;;;;;;;;;;;;;;;1008218;29;812;-32
2022/01/27 03:38:05;;;;;;;;;;;;;;;;;;1008280;29;1292;-33
2022/01/27 03:38:35;;;;;;;;;;;;;;;;;;1008151;29;852;-32
2022/01/27 03:39:07;;;;;;;;;;;;;;;;;;1008380;29;903;-32
2022/01/27 03:39:39;;;;;;;;;;;;;;;;;;1008200;29;962;-32
2022/01/27 03:40:10;;;;;;;;;;;;;;;;;;1008235;29;891;-32
2022/01/27 03:40:40;;;;;;;;;;;;;;;;;;1008261;29;824;-32
2022/01/27 03:41:11;;;;;;;;;;;;;;;;;;1008202;29;930;-32
2022/01/27 03:41:49;;;;;;;;;;;;;;;;;;1008211;29;1030;-32
2022/01/27 03:42:19;;;;;;;;;;;;;;;;;;1007950;29;982;-32
2022/01/27 03:43:02;;;;;;;;;;;;;;;;;;1008314;29;839;-32
2022/01/27 03:43:33;;;;;;;;;;;;;;;;;;1008174;29;895;-32
2022/01/27 03:44:05;;;;;;;;;;;;;;;;;;1008213;29;1923;-32
2022/01/27 03:44:35;;;;;;;;;;;;;;;;;;1008090;29;875;-32
2022/01/27 03:45:06;;;;;;;;;;;;;;;;;;1007925;29;848;-32
2022/01/27 03:45:36;;;;;;;;;;;;;;;;;;1007777;29;792;-32
2022/01/27 03:46:07;;;;;;;;;;;;;;;;;;1008047;29;884;-32
2022/01/27 03:46:37;;;;;;;;;;;;;;;;;;1007703;29;883;-32
2022/01/27 03:47:08;;;;;;;;;;;;;;;;;;1008351;29;927;-32
2022/01/27 03:47:38;;;;;;;;;;;;;;;;;;1008126;29;887;-32
2022/01/27 03:48:08;;;;;;;;;;;;;;;;;;1008300;29;824;-32
2022/01/27 03:48:39;;;;;;;;;;;;;;;;;;1008148;29;868;-32
2022/01/27 03:49:09;;;;;;;;;;;;;;;;;;1008294;29;922;-32
2022/01/27 03:49:40;;;;;;;;;;;;;;;;;;1008136;29;985;-32
2022/01/27 03:50:10;;;;;;;;;;;;;;;;;;1008141;29;982;-32
2022/01/27 03:50:40;;;;;;;;;;;;;;;;;;1007994;29;953;-32
2022/01/27 03:51:11;;;;;;;;;;;;;;;;;;1008337;29;985;-32
2022/01/27 03:51:42;;;;;;;;;;;;;;;;;;1008088;29;946;-32
2022/01/27 03:52:12;;;;;;;;;;;;;;;;;;1008278;29;1097;-32
2022/01/27 03:52:42;;;;;;;;;;;;;;;;;;1008010;29;946;-32
2022/01/27 03:53:14;;;;;;;;;;;;;;;;;;1008242;29;793;-32
2022/01/27 03:53:45;;;;;;;;;;;;;;;;;;1008233;29;942;-32
2022/01/27 03:54:16;;;;;;;;;;;;;;;;;;1007837;29;891;-32
2022/01/27 03:54:46;;;;;;;;;;;;;;;;;;1007796;29;825;-32
2022/01/27 03:55:17;;;;;;;;;;;;;;;;;;1007944;29;800;-32
2022/01/27 03:55:47;;;;;;;;;;;;;;;;;;1007794;29;909;-32
2022/01/27 03:56:18;;;;;;;;;;;;;;;;;;1008252;29;860;-32
2022/01/27 03:56:48;;;;;;;;;;;;;;;;;;1008129;29;867;-32
2022/01/27 03:57:18;;;;;;;;;;;;;;;;;;1008224;29;867;-32
2022/01/27 03:57:49;;;;;;;;;;;;;;;;;;1008259;29;998;-32
2022/01/27 03:58:19;;;;;;;;;;;;;;;;;;1008071;29;840;-32
2022/01/27 03:58:49;;;;;;;;;;;;;;;;;;1008168;29;916;-32
2022/01/27 03:59:20;;;;;;;;;;;;;;;;;;1008183;29;883;-31
2022/01/27 03:59:50;;;;;;;;;;;;;;;;;;1008134;29;871;-31
2022/01/27 04:00:20;;;;;;;;;;;;;;;;;;1008304;29;860;-32
2022/01/27 04:00:51;;;;;;;;;;;;;;;;;;1008140;29;859;-32
2022/01/27 04:01:22;;;;;;;;;;;;;;;;;;1008170;29;986;-32
2022/01/27 04:01:52;;;;;;;;;;;;;;;;;;1008315;29;860;-32
2022/01/27 04:02:23;;;;;;;;;;;;;;;;;;1008016;29;993;-32
2022/01/27 04:03:02;;;;;;;;;;;;;;;;;;1008146;29;867;-32
2022/01/27 04:03:35;;;;;;;;;;;;;;;;;;1007983;29;839;-32
2022/01/27 04:04:05;;;;;;;;;;;;;;;;;;1008152;29;1903;-32
2022/01/27 04:04:36;;;;;;;;;;;;;;;;;;1008135;29;957;-32
2022/01/27 04:05:07;;;;;;;;;;;;;;;;;;1008169;29;1001;-32
2022/01/27 04:05:41;;;;;;;;;;;;;;;;;;1008029;29;907;-32
2022/01/27 04:06:19;;;;;;;;;;;;;;;;;;1008161;29;819;-33
2022/01/27 04:06:52;;;;;;;;;;;;;;;;;;1008149;29;887;-33
2022/01/27 04:07:22;;;;;;;;;;;;;;;;;;1008236;29;930;-32
2022/01/27 04:07:57;;;;;;;;;;;;;;;;;;1008023;29;958;-33
2022/01/27 04:08:27;;;;;;;;;;;;;;;;;;1008244;29;954;-33
2022/01/27 04:08:57;;;;;;;;;;;;;;;;;;1008089;29;816;-32
2022/01/27 04:09:28;;;;;;;;;;;;;;;;;;1008187;29;887;-32
2022/01/27 04:09:58;;;;;;;;;;;;;;;;;;1008014;29;1010;-33
2022/01/27 04:10:29;;;;;;;;;;;;;;;;;;1008192;29;867;-33
2022/01/27 04:10:59;;;;;;;;;;;;;;;;;;1008151;29;955;-33
2022/01/27 04:11:31;;;;;;;;;;;;;;;;;;1008123;29;907;-33
2022/01/27 04:12:01;;;;;;;;;;;;;;;;;;1008064;29;916;-33
2022/01/27 04:12:31;;;;;;;;;;;;;;;;;;1008151;29;872;-33
2022/01/27 04:13:02;;;;;;;;;;;;;;;;;;1008096;29;895;-32
2022/01/27 04:13:33;;;;;;;;;;;;;;;;;;1008196;29;843;-33
2022/01/27 04:14:03;;;;;;;;;;;;;;;;;;1008027;29;808;-33
2022/01/27 04:14:33;;;;;;;;;;;;;;;;;;1008125;29;899;-33
2022/01/27 04:15:04;;;;;;;;;;;;;;;;;;1008195;29;851;-32
2022/01/27 04:15:35;;;;;;;;;;;;;;;;;;1007910;29;1372;-32
2022/01/27 04:16:06;;;;;;;;;;;;;;;;;;1008085;29;959;-32
2022/01/27 04:16:36;;;;;;;;;;;;;;;;;;1008092;29;858;-33
2022/01/27 04:17:07;;;;;;;;;;;;;;;;;;1008083;29;975;-32
2022/01/27 04:17:37;;;;;;;;;;;;;;;;;;1008156;29;950;-32
2022/01/27 04:18:08;;;;;;;;;;;;;;;;;;1007972;29;938;-32
2022/01/27 04:18:38;;;;;;;;;;;;;;;;;;1008085;29;1018;-32
2022/01/27 04:19:09;;;;;;;;;;;;;;;;;;1008233;29;867;-32